Time;durP1;ratioP1;P1;durP2;ratioP2;P2;SDS_P1;SDS_P2;PMS_P1;PMS_P2;Temp;Humidity;BMP_temperature;BMP_pressure;BME280_temperature;BME280_humidity;BME280_pressure;Samples;Min_cycle;Max_cycle;Signal;HPM_P1;HPM_P2
2021/11/11 00:01:51;;;;;;;30.67;15.50;;;;;;;-0.15;100.00;99451.16;5047985;28;20025;-70
2021/11/11 00:04:19;;;;;;;30.13;15.43;;;;;;;-0.27;100.00;99456.44;5069466;28;20068;-70
2021/11/11 00:06:45;;;;;;;34.15;16.15;;;;;;;-0.19;100.00;99449.69;5067077;28;20055;-70
2021/11/11 00:09:11;;;;;;;28.65;16.35;;;;;;;-0.36;100.00;99451.00;5071999;28;20032;-70
2021/11/11 00:11:36;;;;;;;34.42;15.90;;;;;;;-0.12;100.00;99453.56;5071801;28;20020;-70
2021/11/11 00:14:01;;;;;;;35.05;17.10;;;;;;;0.04;100.00;99451.41;5062125;28;20047;-70
2021/11/11 00:16:27;;;;;;;35.88;17.25;;;;;;;0.10;100.00;99464.19;5067548;28;20025;-70
2021/11/11 00:18:52;;;;;;;35.40;16.90;;;;;;;-0.01;100.00;99461.53;5068322;28;20020;-69
2021/11/11 00:21:17;;;;;;;32.28;15.82;;;;;;;-0.09;100.00;99469.28;5076012;28;20028;-70
2021/11/11 00:23:43;;;;;;;33.88;16.08;;;;;;;-0.13;100.00;99458.03;5069788;28;20037;-70
2021/11/11 00:26:09;;;;;;;33.17;15.32;;;;;;;-0.04;100.00;99464.44;5056016;28;20406;-69
2021/11/11 00:28:34;;;;;;;35.25;17.67;;;;;;;0.05;100.00;99466.38;5064646;28;20066;-69
2021/11/11 00:31:00;;;;;;;33.42;15.77;;;;;;;0.12;100.00;99472.91;5076185;28;20032;-69
2021/11/11 00:33:25;;;;;;;40.70;17.95;;;;;;;0.17;100.00;99469.91;5074581;28;20102;-70
2021/11/11 00:35:51;;;;;;;52.05;17.35;;;;;;;0.29;100.00;99470.72;5056139;28;20025;-69
2021/11/11 00:38:16;;;;;;;38.60;16.08;;;;;;;0.35;100.00;99462.28;5064285;28;20028;-69
2021/11/11 00:40:41;;;;;;;38.03;15.40;;;;;;;0.43;100.00;99454.53;5075754;28;20037;-69
2021/11/11 00:43:07;;;;;;;40.78;16.63;;;;;;;0.43;100.00;99436.75;5075461;28;20025;-70
2021/11/11 00:45:33;;;;;;;50.28;15.55;;;;;;;0.55;100.00;99458.00;5056826;28;20131;-69
2021/11/11 00:47:59;;;;;;;44.80;16.33;;;;;;;0.72;100.00;99462.00;5056239;28;20028;-70
2021/11/11 00:50:29;;;;;;;39.47;15.30;;;;;;;0.77;100.00;99454.47;5064932;28;20475;-70
2021/11/11 00:52:55;;;;;;;43.13;16.45;;;;;;;0.59;100.00;99454.13;5074241;28;20100;-70
2021/11/11 00:55:21;;;;;;;39.65;16.05;;;;;;;0.62;100.00;99454.72;5056632;28;20134;-69
2021/11/11 00:57:46;;;;;;;40.05;16.83;;;;;;;0.63;100.00;99434.28;5044326;28;20040;-68
2021/11/11 01:00:15;;;;;;;32.25;15.55;;;;;;;0.51;100.00;99414.81;5074740;28;20046;-70
2021/11/11 01:02:40;;;;;;;42.85;16.70;;;;;;;0.60;100.00;99430.06;5062463;28;20032;-70
2021/11/11 01:05:07;;;;;;;32.03;15.13;;;;;;;0.48;100.00;99424.88;5075191;28;20032;-70
2021/11/11 01:07:35;;;;;;;39.25;14.93;;;;;;;0.59;100.00;99438.16;5065143;28;20112;-70
2021/11/11 01:10:00;;;;;;;44.83;15.40;;;;;;;0.43;100.00;99420.75;5057418;28;20017;-70
2021/11/11 01:12:25;;;;;;;41.42;16.27;;;;;;;0.55;100.00;99442.03;5064379;28;20074;-70
2021/11/11 01:14:51;;;;;;;42.28;16.30;;;;;;;0.57;100.00;99443.59;5068232;28;20044;-70
2021/11/11 01:17:16;;;;;;;59.38;17.92;;;;;;;0.50;100.00;99444.22;5043491;28;20162;-70
2021/11/11 01:19:41;;;;;;;39.17;16.00;;;;;;;0.48;100.00;99439.03;5072215;28;20058;-70
2021/11/11 01:22:07;;;;;;;49.08;15.45;;;;;;;0.51;100.00;99445.94;5057811;28;20406;-70
2021/11/11 01:24:33;;;;;;;43.28;15.52;;;;;;;0.47;100.00;99437.31;5042685;28;20032;-69
2021/11/11 01:26:58;;;;;;;53.75;16.05;;;;;;;0.42;100.00;99440.38;5066135;28;20094;-70
2021/11/11 01:29:24;;;;;;;56.60;16.20;;;;;;;0.39;100.00;99450.41;5065205;28;20372;-70
2021/11/11 01:31:49;;;;;;;38.30;14.57;;;;;;;0.64;100.00;99442.16;5069517;28;20047;-70
2021/11/11 01:34:15;;;;;;;43.17;15.82;;;;;;;0.79;100.00;99449.88;5074873;28;20054;-70
2021/11/11 01:36:40;;;;;;;34.65;14.20;;;;;;;0.81;100.00;99447.91;5060401;28;20033;-70
2021/11/11 01:39:06;;;;;;;48.35;16.33;;;;;;;0.59;100.00;99416.88;5054797;28;20045;-70
2021/11/11 01:41:32;;;;;;;43.00;17.00;;;;;;;0.78;100.00;99429.50;5039091;28;20029;-69
2021/11/11 01:43:58;;;;;;;57.30;16.38;;;;;;;0.50;100.00;99415.81;5069817;28;20044;-70
2021/11/11 01:46:23;;;;;;;39.10;15.80;;;;;;;0.47;100.00;99425.84;5061992;28;20025;-70
2021/11/11 01:48:48;;;;;;;42.72;18.13;;;;;;;0.49;100.00;99422.09;5058465;28;20082;-70
2021/11/11 01:51:16;;;;;;;52.80;17.10;;;;;;;0.49;100.00;99422.09;5069242;28;20024;-69
2021/11/11 01:53:41;;;;;;;50.63;16.98;;;;;;;0.47;100.00;99423.19;5058139;28;20025;-70
2021/11/11 01:56:06;;;;;;;53.03;17.17;;;;;;;0.41;100.00;99419.19;5072068;28;20033;-69
2021/11/11 01:58:32;;;;;;;50.72;16.08;;;;;;;0.43;100.00;99422.59;5066392;28;20047;-70
2021/11/11 02:00:59;;;;;;;53.78;15.38;;;;;;;0.37;100.00;99418.59;5077996;28;20024;-70
2021/11/11 02:03:24;;;;;;;37.38;15.23;;;;;;;0.34;100.00;99423.31;5073330;28;20150;-69
2021/11/11 02:05:51;;;;;;;37.92;16.23;;;;;;;0.36;100.00;99416.06;5058995;28;20040;-70
2021/11/11 02:08:17;;;;;;;44.90;14.85;;;;;;;0.31;100.00;99427.06;5081170;28;20025;-69
2021/11/11 02:10:42;;;;;;;97.18;16.33;;;;;;;0.07;100.00;99405.94;5066738;28;20056;-69
2021/11/11 02:13:09;;;;;;;65.20;14.77;;;;;;;0.13;100.00;99436.50;5062504;28;20085;-70
2021/11/11 02:15:36;;;;;;;65.90;14.73;;;;;;;0.10;100.00;99434.09;5074016;28;20024;-70
2021/11/11 02:18:06;;;;;;;30.92;14.18;;;;;;;0.14;100.00;99423.09;5059315;28;20028;-70
2021/11/11 02:20:35;;;;;;;33.30;14.27;;;;;;;0.05;100.00;99401.69;5070528;28;20036;-70
2021/11/11 02:23:02;;;;;;;;;;;;;;;0.18;100.00;99416.56;5070692;28;20046;-70
2021/11/11 02:25:28;;;;;;;32.75;13.50;;;;;;;0.17;100.00;99411.38;5070071;28;19919;-69
2021/11/11 02:27:57;;;;;;;46.15;16.00;;;;;;;0.15;100.00;99402.66;5070222;28;20080;-70
2021/11/11 02:30:25;;;;;;;46.28;16.42;;;;;;;0.17;100.00;99409.56;5068807;28;20116;-70
2021/11/11 02:32:50;;;;;;;57.72;16.83;;;;;;;0.15;100.00;99403.50;5058632;28;20075;-70
2021/11/11 02:35:17;;;;;;;34.22;15.05;;;;;;;0.22;100.00;99399.38;5071102;28;20032;-69
2021/11/11 02:37:43;;;;;;;37.53;14.57;;;;;;;0.17;100.00;99387.41;5070042;28;20082;-70
2021/11/11 02:40:11;;;;;;;27.33;14.00;;;;;;;0.28;100.00;99391.88;5058205;28;20545;-70
2021/11/11 02:42:40;;;;;;;39.95;15.23;;;;;;;0.26;100.00;99399.13;5074439;28;20025;-70
2021/11/11 02:45:07;;;;;;;29.73;14.98;;;;;;;0.30;100.00;99403.25;5074569;28;20398;-69
2021/11/11 02:47:34;;;;;;;35.65;14.95;;;;;;;0.20;100.00;99403.13;5060210;28;20032;-70
2021/11/11 02:49:59;;;;;;;68.18;17.17;;;;;;;0.26;100.00;99405.28;5063569;28;20398;-70
2021/11/11 02:52:25;;;;;;;29.52;14.95;;;;;;;0.17;100.00;99390.91;5070638;28;20024;-69
2021/11/11 02:54:51;;;;;;;35.42;15.88;;;;;;;0.21;100.00;99399.53;5075520;28;20025;-69
2021/11/11 02:57:31;;;;;;;42.38;14.57;;;;;;;0.32;100.00;99417.28;5066540;28;20033;-70
2021/11/11 02:59:59;;;;;;;61.80;16.40;;;;;;;0.32;100.00;99417.28;5069233;28;20049;-70
2021/11/11 03:02:27;;;;;;;38.13;14.93;;;;;;;0.28;100.00;99410.50;5075216;28;20025;-70
2021/11/11 03:04:54;;;;;;;50.88;14.45;;;;;;;0.27;100.00;99398.19;5067843;28;20048;-69
2021/11/11 03:07:20;;;;;;;27.83;14.07;;;;;;;0.17;100.00;99374.97;5082929;28;20029;-70
2021/11/11 03:09:47;;;;;;;29.75;14.23;;;;;;;0.34;100.00;99408.22;5087135;28;20116;-70
2021/11/11 03:12:13;;;;;;;29.98;13.32;;;;;;;0.24;100.00;99395.75;5084533;28;20108;-69
2021/11/11 03:14:38;;;;;;;34.00;13.52;;;;;;;0.30;100.00;99403.25;5065006;28;20036;-70
2021/11/11 03:17:05;;;;;;;24.58;13.35;;;;;;;0.20;100.00;99385.34;5080657;28;20024;-69
2021/11/11 03:19:32;;;;;;;27.58;13.40;;;;;;;0.37;100.00;99401.81;5062211;28;20039;-70
2021/11/11 03:21:58;;;;;;;33.95;13.68;;;;;;;0.25;100.00;99414.25;5063533;28;20025;-69
2021/11/11 03:24:23;;;;;;;49.45;13.18;;;;;;;0.20;100.00;99419.94;5060766;28;20479;-69
2021/11/11 03:26:49;;;;;;;36.10;13.30;;;;;;;0.06;100.00;99395.41;5066835;28;20020;-70
2021/11/11 03:29:15;;;;;;;42.90;12.45;;;;;;;0.09;100.00;99409.31;5036284;28;20031;-70
2021/11/11 03:31:40;;;;;;;33.53;13.05;;;;;;;0.09;100.00;99401.34;5071851;28;20031;-70
2021/11/11 03:34:05;;;;;;;50.17;14.80;;;;;;;0.15;100.00;99416.78;5071514;28;20059;-70
2021/11/11 03:36:31;;;;;;;51.72;13.75;;;;;;;0.13;100.00;99423.22;5072327;28;20142;-70
2021/11/11 03:38:56;;;;;;;105.70;14.23;;;;;;;0.12;100.00;99430.34;5060213;28;20052;-70
2021/11/11 03:41:21;;;;;;;96.80;13.90;;;;;;;0.00;100.00;99415.38;5071400;28;20119;-70
2021/11/11 03:43:47;;;;;;;33.58;11.75;;;;;;;0.01;100.00;99403.75;5072027;28;20024;-70
2021/11/11 03:46:13;;;;;;;32.88;11.73;;;;;;;0.10;100.00;99418.97;5072278;28;20036;-70
2021/11/11 03:48:39;;;;;;;63.80;11.88;;;;;;;0.06;100.00;99420.19;5059040;28;20070;-70
2021/11/11 03:51:05;;;;;;;38.15;12.73;;;;;;;-0.07;100.00;99401.69;5058605;28;20032;-70
2021/11/11 03:53:31;;;;;;;48.80;12.52;;;;;;;0.05;100.00;99420.31;5060500;28;20447;-70
2021/11/11 03:55:57;;;;;;;51.03;11.65;;;;;;;-0.01;100.00;99414.50;5071725;28;20016;-70
2021/11/11 03:58:22;;;;;;;25.63;10.45;;;;;;;0.02;100.00;99417.91;5059780;28;20028;-70
2021/11/11 04:00:48;;;;;;;42.22;11.15;;;;;;;-0.01;100.00;99411.84;5063346;28;20045;-70
2021/11/11 04:03:13;;;;;;;44.83;11.18;;;;;;;-0.02;100.00;99412.00;5060705;28;20085;-70
2021/11/11 04:05:39;;;;;;;38.55;11.15;;;;;;;-0.15;100.00;99409.44;5063462;28;20028;-72
2021/11/11 04:08:04;;;;;;;42.25;11.32;;;;;;;-0.07;100.00;99411.50;5063718;28;20028;-72
2021/11/11 04:10:30;;;;;;;52.33;11.45;;;;;;;-0.09;100.00;99416.94;5070946;28;20099;-72
2021/11/11 04:12:56;;;;;;;18.80;10.88;;;;;;;-0.03;100.00;99420.91;5070708;28;20029;-72
2021/11/11 04:15:21;;;;;;;47.90;12.13;;;;;;;-0.04;100.00;99419.25;5058863;28;20029;-69
2021/11/11 04:17:46;;;;;;;36.28;10.40;;;;;;;-0.01;100.00;99419.00;5071579;28;20032;-74
2021/11/11 04:20:12;;;;;;;24.77;10.07;;;;;;;-0.13;100.00;99403.97;5071910;28;20031;-73
2021/11/11 04:22:38;;;;;;;44.58;12.45;;;;;;;-0.13;100.00;99409.31;5069391;28;20107;-73
2021/11/11 04:25:06;;;;;;;31.00;11.40;;;;;;;-0.15;100.00;99412.09;5056655;28;20021;-73
2021/11/11 04:27:41;;;;;;;28.83;11.98;;;;;;;-0.16;100.00;99421.03;5067557;28;20482;-73
2021/11/11 04:30:15;;;;;;;33.13;12.52;;;;;;;-0.22;100.00;99421.53;5045131;28;20031;-71
2021/11/11 04:32:41;;;;;;;37.55;12.38;;;;;;;-0.36;100.00;99401.34;5068288;28;20479;-71
2021/11/11 04:35:07;;;;;;;54.13;13.32;;;;;;;-0.31;100.00;99425.75;5052082;28;20078;-72
2021/11/11 04:37:47;;;;;;;54.28;11.93;;;;;;;-0.34;100.00;99426.00;5058939;28;20409;-73
2021/11/11 04:43:11;;;;;;;21.95;9.55;;;;;;;-0.38;100.00;99445.78;5064762;28;20136;-72
2021/11/11 05:01:55;;;;;;;32.22;10.77;;;;;;;-0.53;100.00;99421.22;5068688;28;20079;-75
2021/11/11 05:04:20;;;;;;;34.10;10.77;;;;;;;-0.46;100.00;99434.91;5073875;28;20482;-76
2021/11/11 05:06:46;;;;;;;36.95;11.45;;;;;;;-0.48;100.00;99428.84;5056476;28;20028;-71
2021/11/11 05:09:11;;;;;;;23.35;11.30;;;;;;;-0.43;100.00;99441.78;5070905;28;20394;-73
2021/11/11 05:11:37;;;;;;;24.45;10.35;;;;;;;-0.33;100.00;99454.25;5074057;28;20555;-71
2021/11/11 05:14:02;;;;;;;23.48;10.40;;;;;;;-0.53;100.00;99423.03;5073437;28;20028;-72
2021/11/11 05:16:28;;;;;;;55.47;11.63;;;;;;;-0.36;100.00;99449.19;5074769;28;20149;-72
2021/11/11 05:18:53;;;;;;;36.40;11.05;;;;;;;-0.36;100.00;99449.19;5072524;28;20548;-72
2021/11/11 05:21:18;;;;;;;82.30;11.20;;;;;;;-0.47;100.00;99450.00;5065081;28;20071;-72
2021/11/11 05:23:44;;;;;;;21.88;9.88;;;;;;;-0.44;100.00;99440.94;5063636;28;20032;-72
2021/11/11 05:26:09;;;;;;;23.17;10.85;;;;;;;-0.16;100.00;99436.97;5060358;28;20509;-73
2021/11/11 05:28:36;;;;;;;48.88;11.20;;;;;;;-0.20;100.00;99429.38;5071415;28;20039;-73
2021/11/11 05:31:01;;;;;;;48.85;12.43;;;;;;;-0.23;100.00;99425.16;5073235;28;20020;-76
2021/11/11 05:33:26;;;;;;;82.80;12.23;;;;;;;-0.29;100.00;99420.28;5058951;28;20097;-76
2021/11/11 05:35:52;;;;;;;123.28;13.15;;;;;;;-0.31;100.00;99414.28;5072067;28;20036;-77
2021/11/11 05:38:17;;;;;;;160.93;13.90;;;;;;;-0.36;100.00;99422.59;5076737;28;20546;-80
2021/11/11 05:40:43;;;;;;;82.45;12.07;;;;;;;-0.68;100.00;99386.06;5063974;28;20036;-80
2021/11/11 05:43:08;;;;;;;253.07;15.57;;;;;;;-0.62;100.00;99429.91;5072225;28;20029;-74
2021/11/11 05:45:34;;;;;;;90.40;14.05;;;;;;;-0.67;100.00;99422.28;5049912;28;20031;-78
2021/11/11 05:47:59;;;;;;;93.43;13.65;;;;;;;-0.46;100.00;99448.19;5047460;28;20024;-74
2021/11/11 05:50:25;;;;;;;308.65;19.10;;;;;;;-0.53;100.00;99439.81;5074563;28;20047;-79
2021/11/11 05:52:50;;;;;;;153.90;15.15;;;;;;;-0.45;100.00;99447.22;5056589;28;20029;-78
2021/11/11 05:55:16;;;;;;;90.68;15.05;;;;;;;-0.33;100.00;99442.78;5064717;28;20367;-73
2021/11/11 05:57:42;;;;;;;231.77;18.80;;;;;;;-0.48;100.00;99450.13;5074780;28;20486;-79
2021/11/11 06:00:14;;;;;;;55.13;12.55;;;;;;;-0.64;100.00;99436.31;5076453;28;20036;-78
2021/11/11 06:02:40;;;;;;;126.70;14.65;;;;;;;-0.69;100.00;99447.28;5066184;28;20028;-78
2021/11/11 06:05:06;;;;;;;36.53;12.77;;;;;;;-0.61;100.00;99446.69;5061665;28;20111;-75
2021/11/11 06:07:31;;;;;;;122.20;13.80;;;;;;;-0.58;100.00;99451.78;5060143;28;20063;-75
2021/11/11 06:09:57;;;;;;;47.30;13.32;;;;;;;-0.62;100.00;99435.22;5052840;28;20028;-78
2021/11/11 06:12:23;;;;;;;86.88;14.95;;;;;;;-0.62;100.00;99434.38;5064527;28;20059;-77
2021/11/11 06:14:48;;;;;;;106.55;15.10;;;;;;;-0.82;100.00;99422.59;5072681;28;20477;-78
2021/11/11 06:17:13;;;;;;;43.70;13.18;;;;;;;-0.56;100.00;99441.88;5056988;28;20112;-76
2021/11/11 06:19:41;;;;;;;68.43;13.55;;;;;;;-0.62;100.00;99431.72;5063041;28;20026;-74
2021/11/11 06:22:07;;;;;;;104.38;14.93;;;;;;;-0.37;100.00;99476.72;5097552;28;20111;-75
2021/11/11 06:24:33;;;;;;;47.53;13.80;;;;;;;-0.43;100.00;99452.44;5055650;28;20459;-78
2021/11/11 06:26:58;;;;;;;70.80;13.80;;;;;;;-0.32;100.00;99469.22;5065571;28;20024;-77
2021/11/11 06:29:24;;;;;;;83.78;14.73;;;;;;;-0.48;100.00;99448.28;5073185;28;20029;-76
2021/11/11 06:31:49;;;;;;;54.33;13.68;;;;;;;-0.54;100.00;99438.16;5056332;28;20119;-76
2021/11/11 06:34:15;;;;;;;30.55;11.68;;;;;;;-0.26;100.00;99478.56;5053224;28;20031;-75
2021/11/11 06:36:40;;;;;;;120.05;13.35;;;;;;;-0.39;100.00;99454.75;5073361;28;20043;-75
2021/11/11 06:39:06;;;;;;;88.85;13.35;;;;;;;-0.31;100.00;99468.28;5050234;28;20501;-74
2021/11/11 06:41:31;;;;;;;46.97;12.90;;;;;;;-0.47;100.00;99455.31;5053897;28;20089;-74
2021/11/11 06:43:57;;;;;;;104.72;14.18;;;;;;;-0.38;100.00;99484.81;5047654;28;20035;-73
2021/11/11 06:46:23;;;;;;;46.03;12.23;;;;;;;-0.29;100.00;99478.78;5075498;28;20028;-75
2021/11/11 06:48:48;;;;;;;50.58;11.80;;;;;;;-0.14;100.00;99498.03;5064282;28;20035;-77
2021/11/11 06:51:14;;;;;;;100.55;13.35;;;;;;;-0.31;100.00;99470.94;5072623;28;20047;-74
2021/11/11 06:53:39;;;;;;;96.05;13.60;;;;;;;-0.31;100.00;99480.75;5079985;28;20103;-71
2021/11/11 06:56:05;;;;;;;71.95;13.38;;;;;;;-0.29;100.00;99495.63;5093945;28;20020;-71
2021/11/11 06:58:30;;;;;;;90.35;14.75;;;;;;;-0.23;100.00;99496.94;5081497;28;20088;-76
2021/11/11 07:01:00;;;;;;;34.95;12.45;;;;;;;-0.18;100.00;99491.25;5095627;28;20039;-77
2021/11/11 07:03:27;;;;;;;48.55;13.10;;;;;;;-0.19;100.00;99465.63;5092371;28;20051;-72
2021/11/11 07:05:53;;;;;;;24.10;12.65;;;;;;;-0.11;100.00;99450.78;5094006;28;20025;-74
2021/11/11 07:08:18;;;;;;;21.95;11.65;;;;;;;0.11;100.00;99470.41;5088855;28;20036;-76
2021/11/11 07:10:46;;;;;;;71.65;12.65;;;;;;;0.07;100.00;99469.78;5079771;28;20028;-74
2021/11/11 07:13:13;;;;;;;19.33;11.40;;;;;;;0.35;100.00;99505.72;5092183;28;20027;-71
2021/11/11 07:15:40;;;;;;;62.75;12.30;;;;;;;0.31;100.00;99498.91;5076512;28;20275;-71
2021/11/11 07:18:08;;;;;;;41.80;10.95;;;;;;;0.20;100.00;99490.94;5079605;28;20055;-73
2021/11/11 07:20:33;;;;;;;47.20;11.55;;;;;;;0.31;100.00;99493.59;5072909;28;20103;-76
2021/11/11 07:23:00;;;;;;;51.67;12.15;;;;;;;0.47;100.00;99503.03;5060640;28;20123;-76
2021/11/11 07:25:27;;;;;;;44.50;11.93;;;;;;;0.50;100.00;99494.81;5072425;28;20063;-75
2021/11/11 07:27:53;;;;;;;21.50;10.32;;;;;;;0.69;100.00;99521.66;5072914;28;20021;-75
2021/11/11 07:30:20;;;;;;;33.58;11.70;;;;;;;0.68;100.00;99516.44;5072768;28;20413;-76
2021/11/11 07:32:46;;;;;;;26.02;9.95;;;;;;;0.76;100.00;99522.00;5069334;28;20075;-73
2021/11/11 07:35:12;;;;;;;19.70;10.23;;;;;;;0.86;100.00;99523.84;5072088;28;20295;-71
2021/11/11 07:37:39;;;;;;;32.10;9.13;;;;;;;0.72;100.00;99529.41;5060043;28;20099;-73
2021/11/11 07:40:06;;;;;;;12.68;8.65;;;;;;;0.85;100.00;99526.59;5072173;28;20020;-72
2021/11/11 07:42:33;;;;;;;36.03;8.52;;;;;;;0.84;100.00;99522.25;5072301;28;20107;-73
2021/11/11 07:44:59;;;;;;;24.25;8.77;;;;;;;0.94;100.00;99517.84;5090265;28;20019;-73
2021/11/11 07:47:28;;;;;;;19.05;8.48;;;;;;;1.08;100.00;99517.59;5072988;28;20092;-76
2021/11/11 07:49:56;;;;;;;25.30;8.43;;;;;;;1.26;100.00;99517.06;5062365;28;20034;-75
2021/11/11 07:52:22;;;;;;;18.63;8.10;;;;;;;1.50;100.00;99530.19;5067676;28;20611;-75
2021/11/11 07:54:48;;;;;;;20.45;8.75;;;;;;;1.58;99.60;99526.88;5059534;28;20052;-73
2021/11/11 07:57:13;;;;;;;22.42;9.68;;;;;;;1.46;99.79;99512.72;5072584;28;20386;-73
2021/11/11 07:59:41;;;;;;;18.10;9.27;;;;;;;1.77;98.65;99518.16;5072056;28;20023;-73
2021/11/11 08:02:07;;;;;;;33.75;9.07;;;;;;;1.75;98.38;99513.78;5068079;28;20032;-73
2021/11/11 08:04:32;;;;;;;30.63;8.95;;;;;;;1.82;98.81;99519.47;5066409;28;20051;-72
2021/11/11 08:06:58;;;;;;;28.30;9.10;;;;;;;1.65;98.64;99498.69;5049093;28;20112;-74
2021/11/11 08:09:23;;;;;;;15.65;9.05;;;;;;;1.75;99.60;99491.59;5061008;28;20334;-74
2021/11/11 08:11:49;;;;;;;14.68;8.43;;;;;;;1.73;97.58;99497.09;5062341;28;20436;-73
2021/11/11 08:14:15;;;;;;;35.45;8.23;;;;;;;1.61;97.29;99502.63;5058292;28;20039;-75
2021/11/11 08:16:40;;;;;;;15.57;8.52;;;;;;;1.53;98.59;99464.09;5071890;28;20095;-74
2021/11/11 08:19:06;;;;;;;33.88;8.60;;;;;;;1.89;97.01;99517.13;5053994;28;20486;-73
2021/11/11 08:21:31;;;;;;;47.75;9.00;;;;;;;1.78;98.47;99520.69;5066674;28;20037;-75
2021/11/11 08:23:56;;;;;;;44.78;9.35;;;;;;;1.81;97.44;99514.25;5060512;28;20028;-75
2021/11/11 08:26:22;;;;;;;32.67;9.23;;;;;;;1.92;97.97;99525.72;5069593;28;20446;-73
2021/11/11 08:28:47;;;;;;;68.65;9.10;;;;;;;1.74;96.97;99516.59;5072259;28;20095;-75
2021/11/11 08:31:13;;;;;;;17.45;9.35;;;;;;;2.13;97.95;99531.03;5062776;28;20020;-75
2021/11/11 08:33:38;;;;;;;59.10;8.98;;;;;;;1.87;95.98;99514.59;5050512;28;20029;-75
2021/11/11 08:36:04;;;;;;;54.78;10.07;;;;;;;1.94;96.32;99533.59;5065277;28;20035;-75
2021/11/11 08:38:30;;;;;;;72.57;10.48;;;;;;;1.57;99.39;99541.16;5054661;28;20016;-73
2021/11/11 08:40:56;;;;;;;36.28;9.20;;;;;;;1.68;99.87;99527.81;5075930;28;20157;-73
2021/11/11 08:43:22;;;;;;;53.65;10.15;;;;;;;1.90;100.00;99514.31;5055124;28;20750;-72
2021/11/11 08:45:49;;;;;;;33.20;9.75;;;;;;;1.91;99.01;99518.69;5071738;28;20021;-72
2021/11/11 08:48:15;;;;;;;45.55;9.77;;;;;;;2.10;97.83;99550.00;5088081;28;20033;-74
2021/11/11 08:50:41;;;;;;;36.67;9.10;;;;;;;2.09;98.70;99555.44;5081074;28;20047;-73
2021/11/11 08:53:09;;;;;;;16.20;8.35;;;;;;;2.10;99.10;99549.16;5083745;28;20016;-72
2021/11/11 08:55:35;;;;;;;26.75;9.50;;;;;;;2.12;98.63;99555.19;5093611;28;20024;-71
2021/11/11 08:58:09;;;;;;;86.70;10.18;;;;;;;1.98;97.34;99557.22;5079063;28;20001;-69
2021/11/11 09:00:37;;;;;;;24.35;8.40;;;;;;;2.13;98.91;99559.56;5088574;28;20020;-69
2021/11/11 09:03:03;;;;;;;15.13;7.68;;;;;;;2.22;96.51;99534.75;5053644;28;20440;-71
2021/11/11 09:05:32;;;;;;;16.52;8.45;;;;;;;2.33;96.56;99566.72;5057464;28;20025;-71
2021/11/11 09:07:58;;;;;;;35.67;10.30;;;;;;;2.33;96.90;99564.06;5071649;28;20111;-71
2021/11/11 09:10:24;;;;;;;20.52;8.88;;;;;;;2.60;96.37;99567.97;5069898;28;20024;-74
2021/11/11 09:12:51;;;;;;;37.72;9.15;;;;;;;2.53;96.96;99564.97;5064545;28;20025;-71
2021/11/11 09:15:19;;;;;;;18.52;9.98;;;;;;;2.63;97.33;99571.22;5073216;28;20092;-72
2021/11/11 09:17:46;;;;;;;15.35;8.65;;;;;;;2.75;97.25;99574.66;5075777;28;20089;-75
2021/11/11 09:20:13;;;;;;;83.28;9.77;;;;;;;2.35;96.15;99556.72;5072020;28;20524;-75
2021/11/11 09:22:40;;;;;;;15.90;9.23;;;;;;;2.59;98.13;99553.78;5059812;28;20021;-76
2021/11/11 09:25:08;;;;;;;20.23;9.27;;;;;;;2.65;97.59;99541.72;5059744;28;20051;-77
2021/11/11 09:27:34;;;;;;;19.98;9.68;;;;;;;2.96;98.01;99571.91;5075119;28;20505;-76
2021/11/11 09:30:01;;;;;;;23.30;9.57;;;;;;;3.00;97.46;99562.63;5065052;28;20024;-73
2021/11/11 09:32:26;;;;;;;43.63;9.82;;;;;;;2.81;97.15;99570.59;5069301;28;20025;-72
2021/11/11 09:34:51;;;;;;;31.45;9.75;;;;;;;2.65;96.41;99544.38;5071579;28;20027;-74
2021/11/11 09:37:17;;;;;;;18.90;9.13;;;;;;;2.87;98.98;99558.50;5060805;28;20391;-75
2021/11/11 09:39:42;;;;;;;18.55;10.57;;;;;;;3.34;94.50;99577.50;5064740;28;20020;-74
2021/11/11 09:42:09;;;;;;;16.17;9.93;;;;;;;3.36;93.88;99575.53;5075323;28;20032;-74
2021/11/11 09:44:35;;;;;;;60.90;10.25;;;;;;;3.02;92.54;99570.53;5074756;28;20047;-76
2021/11/11 09:47:02;;;;;;;21.33;10.27;;;;;;;2.96;94.79;99579.06;5074414;28;20024;-71
2021/11/11 09:49:27;;;;;;;43.75;10.30;;;;;;;2.87;97.34;99579.91;5068178;28;20475;-74
2021/11/11 09:51:54;;;;;;;24.85;11.05;;;;;;;3.00;99.60;99577.81;5064767;28;20017;-76
2021/11/11 09:59:37;;;;;;;28.95;10.68;;;;;;;3.17;97.42;99560.28;5074239;28;20035;-73
2021/11/11 10:02:03;;;;;;;51.08;11.40;;;;;;;3.30;96.78;99579.56;5070302;28;20041;-76
2021/11/11 10:04:29;;;;;;;41.25;11.30;;;;;;;3.35;95.71;99574.66;5072038;28;20464;-77
2021/11/11 10:06:55;;;;;;;31.20;13.48;;;;;;;3.50;95.17;99573.28;5064792;28;20390;-76
2021/11/11 10:09:22;;;;;;;20.33;10.68;;;;;;;3.58;94.39;99572.59;5067307;28;20031;-75
2021/11/11 10:11:54;;;;;;;27.70;11.45;;;;;;;3.47;94.46;99562.88;5068449;28;20032;-76
2021/11/11 10:14:30;;;;;;;25.75;10.35;;;;;;;3.64;94.46;99569.38;5067948;28;20024;-76
2021/11/11 10:16:57;;;;;;;25.95;12.50;;;;;;;3.75;94.69;99568.38;5068792;28;20033;-74
2021/11/11 10:19:23;;;;;;;19.60;10.98;;;;;;;4.00;94.23;99548.19;5072331;28;20117;-74
2021/11/11 10:21:58;;;;;;;26.13;11.77;;;;;;;4.33;92.56;99562.09;5077005;28;20031;-77
2021/11/11 10:24:47;;;;;;;28.08;11.70;;;;;;;4.24;90.98;99549.56;5077295;28;20024;-79
2021/11/11 10:30:30;;;;;;;29.20;12.05;;;;;;;4.07;87.41;99543.97;5049541;28;19917;-75
2021/11/11 10:32:58;;;;;;;32.80;12.32;;;;;;;4.23;87.09;99569.31;5036092;28;20025;-75
2021/11/11 10:35:25;;;;;;;23.00;12.57;;;;;;;4.10;89.86;99558.91;5067951;28;20032;-75
2021/11/11 10:37:52;;;;;;;24.20;13.25;;;;;;;4.13;91.70;99559.44;5073750;28;20031;-72
2021/11/11 10:40:26;;;;;;;24.17;11.65;;;;;;;4.21;90.88;99560.56;5070728;28;20381;-72
2021/11/11 10:42:54;;;;;;;38.10;13.55;;;;;;;4.00;90.84;99542.84;5072935;28;20028;-74
2021/11/11 10:45:23;;;;;;;25.23;13.60;;;;;;;4.14;91.99;99550.44;5067349;28;20740;-77
2021/11/11 10:47:52;;;;;;;25.80;14.07;;;;;;;4.15;92.63;99546.78;5061900;28;20029;-74
2021/11/11 10:50:21;;;;;;;23.75;12.63;;;;;;;4.20;91.70;99561.56;5070763;28;20071;-76
2021/11/11 10:52:50;;;;;;;27.35;13.05;;;;;;;4.22;90.97;99556.91;5052024;28;20020;-73
2021/11/11 10:55:15;;;;;;;21.67;13.55;;;;;;;4.28;93.01;99556.34;5059730;28;20037;-72
2021/11/11 10:57:45;;;;;;;25.33;13.52;;;;;;;4.64;91.79;99557.38;5070090;28;20025;-73
2021/11/11 11:00:20;;;;;;;29.20;13.65;;;;;;;4.40;88.21;99539.09;5050040;28;20446;-76
2021/11/11 11:02:50;;;;;;;23.25;13.68;;;;;;;4.61;89.67;99555.81;5052295;28;20020;-74
2021/11/11 11:05:17;;;;;;;26.30;14.27;;;;;;;4.44;89.24;99545.84;5072359;28;20111;-73
2021/11/11 11:07:52;;;;;;;24.55;15.18;;;;;;;4.29;89.65;99558.00;5072373;28;20028;-71
2021/11/11 11:10:18;;;;;;;29.77;15.00;;;;;;;4.26;89.86;99550.28;5072478;28;20034;-72
2021/11/11 11:12:44;;;;;;;27.92;13.50;;;;;;;4.49;89.75;99556.97;5064247;28;20390;-72
2021/11/11 11:15:53;;;;;;;23.85;14.38;;;;;;;4.33;89.92;99565.63;5062219;28;20107;-72
2021/11/11 11:18:24;;;;;;;26.10;13.70;;;;;;;4.48;91.16;99565.16;5040537;28;20033;-74
2021/11/11 11:20:54;;;;;;;27.20;13.48;;;;;;;4.42;92.02;99569.25;5054849;28;20477;-74
2021/11/11 11:23:27;;;;;;;22.38;13.55;;;;;;;4.41;91.58;99530.06;5072274;28;20033;-74
2021/11/11 11:26:02;;;;;;;25.75;13.90;;;;;;;4.71;90.99;99553.09;5078274;28;20123;-74
2021/11/11 11:28:43;;;;;;;24.02;14.27;;;;;;;4.69;90.14;99554.22;5063614;28;20465;-74
2021/11/11 11:31:10;;;;;;;22.55;13.73;;;;;;;4.74;90.57;99550.13;5061394;28;20029;-74
2021/11/11 11:33:43;;;;;;;22.60;13.32;;;;;;;4.88;90.65;99540.75;5060944;28;20033;-74
2021/11/11 11:36:17;;;;;;;24.25;14.40;;;;;;;4.64;89.43;99543.09;5070729;28;20024;-74
2021/11/11 11:38:54;;;;;;;23.80;13.57;;;;;;;4.69;90.71;99536.31;5070996;28;20032;-74
2021/11/11 11:41:52;;;;;;;24.05;14.65;;;;;;;4.75;90.84;99540.25;5060012;28;20029;-74
2021/11/11 11:44:21;;;;;;;23.67;14.50;;;;;;;4.65;92.48;99540.28;5042343;28;20106;-71
2021/11/11 11:47:06;;;;;;;23.35;14.27;;;;;;;4.43;92.44;99538.81;5052856;28;20156;-72